Observations
| Time | Sensor | AQI | SAQ | Temp °C | Hum % | Pres Pa | CO μg/m³ | H₂S μg/m³ | NO μg/m³ | NO₂ μg/m³ | O₃ μg/m³ | SO₂ μg/m³ | CO₂e PPM | VOC PPM | PM1 μg/m³ | PM2.5 μg/m³ | PM4 μg/m³ | PM10 μg/m³ | TPS µm |
|---|---|---|---|---|---|---|---|---|---|---|---|---|---|---|---|---|---|---|---|
| Tuesday 11 August 2026 | |||||||||||||||||||
| 14:38 | Trim Market St | 2 | 43.4 | 16 | 67,479 | 0 | 0 | 0 | 16.37 | 63.6 | 4.13 | 0 | 3.92 | 4.31 | |||||
| 14:38 | Trim Patrick St | 2 | 34.9 | 25 | 69,575 | 0 | 0 | 0.48 | 15.17 | 133.23 | 19.7 | 2 | 8.83 | 9.72 | |||||
| 14:37 | Trim Patrick St | 2 | 34.8 | 24 | 69,573 | 0 | 0 | 0.54 | 12.7 | 83.84 | 17.8 | 2 | 8.05 | 8.85 | |||||
| 14:36 | Trim Patrick St | 2 | 34.7 | 24 | 69,569 | 0 | 9.94 | 0.53 | 13.95 | 137.36 | 23.32 | 2 | 8.04 | 8.84 | |||||
| 14:35 | Trim Patrick St | 2 | 34.7 | 24 | 69,567 | 0 | 0 | 0.53 | 17.66 | 151.21 | 19.64 | 2 | 8.06 | 8.87 | |||||
| 14:34 | Trim Patrick St | 2 | 34.7 | 24 | 69,569 | 0 | 0 | 0.47 | 10.26 | 70.7 | 19.86 | 2.86 | 9.72 | 10.7 | |||||
| 14:33 | Trim Patrick St | 2 | 34.7 | 23 | 69,569 | 0 | 0 | 0.58 | 15.76 | 152.65 | 19.99 | 2 | 8.1 | 8.91 | |||||
| 14:32 | Trim Patrick St | 2 | 34.7 | 24 | 69,569 | 0 | 0 | 0.45 | 13.08 | 104.56 | 19.23 | 2 | 8.03 | 8.83 | |||||
| 14:31 | Trim Patrick St | 2 | 34.6 | 24 | 69,569 | 0 | 0 | 0.48 | 11.36 | 85.11 | 20.19 | 2 | 8.05 | 8.86 | |||||
| 14:31 | Trim Market St | 2 | 43 | 16 | 67,390 | 0 | 0 | 0 | 24.67 | 74.25 | 3.5 | 0 | 3.36 | 3.7 | |||||
| 14:30 | Trim Patrick St | 2 | 34.6 | 24 | 69,569 | 0 | 0 | 0.45 | 8.41 | 70.6 | 17.13 | 2 | 8.08 | 8.89 | |||||
| 14:30 | Trim Market St | 2 | 42.9 | 16 | 67,386 | 0 | 0 | 0 | 15.25 | 74.93 | 6.22 | 0 | 3.93 | 4.32 | |||||
| 14:29 | Trim Patrick St | 2 | 34.6 | 23 | 69,571 | 0 | 0 | 0.47 | 16.94 | 153.4 | 19.75 | 2 | 8.1 | 8.91 | |||||
| 14:28 | Trim Patrick St | 2 | 34.5 | 24 | 69,573 | 0 | 0 | 0.4 | 12.32 | 84.46 | 17.85 | 2 | 8.03 | 8.84 | |||||
| 14:28 | Trim Market St | 2 | 42.8 | 15 | 67,382 | 0 | 0 | 0 | 15.53 | 84.47 | 5.05 | 0 | 3.37 | 3.71 | |||||
| 14:27 | Trim Patrick St | 2 | 34.5 | 23 | 69,569 | 0 | 0 | 0.43 | 14.43 | 140.22 | 19.92 | 2 | 8.1 | 8.91 | |||||
| 14:26 | Trim Patrick St | 2 | 34.4 | 23 | 69,567 | 0 | 0 | 0.48 | 10.46 | 74.06 | 16.65 | 2 | 8.13 | 8.94 | |||||
| 14:26 | Trim Market St | 2 | 42.8 | 16 | 67,386 | 0 | 0 | 0 | 15.15 | 120.94 | 6.39 | 0 | 3.37 | 3.71 | |||||
| 14:25 | Trim Patrick St | 2 | 34.4 | 25 | 69,563 | 0 | 0 | 0.5 | 13.09 | 87.19 | 17.27 | 2 | 8.01 | 8.81 | |||||
| 14:25 | Trim Market St | 2 | 42.8 | 16 | 67,386 | 0 | 0 | 0 | 15.29 | 84.12 | 6.71 | 0 | 3.93 | 4.32 | |||||